Time;durP1;ratioP1;P1;durP2;ratioP2;P2;SDS_P1;SDS_P2;PMS_P1;PMS_P2;Temp;Humidity;BMP_temperature;BMP_pressure;BME280_temperature;BME280_humidity;BME280_pressure;Samples;Min_cycle;Max_cycle;Signal;HPM_P1;HPM_P2
2021/09/16 00:02:09;;;;;;;7.23;6.53;;;22.10;48.70;;;;;;10369905;28;20226;-76
2021/09/16 00:07:13;;;;;;;8.20;6.57;;;22.10;48.80;;;;;;10376136;28;20589;-75
2021/09/16 00:12:16;;;;;;;7.43;6.77;;;22.00;49.50;;;;;;10373777;28;20224;-75
2021/09/16 00:17:20;;;;;;;7.23;6.57;;;22.00;49.00;;;;;;10374062;28;20639;-75
2021/09/16 00:22:24;;;;;;;10.10;6.70;;;22.00;49.10;;;;;;10371805;28;20234;-75
2021/09/16 00:27:27;;;;;;;6.57;5.97;;;21.90;49.70;;;;;;10368797;28;20225;-75
2021/09/16 00:32:31;;;;;;;6.27;5.77;;;21.90;49.20;;;;;;10373353;28;20590;-75
2021/09/16 00:37:36;;;;;;;6.23;5.63;;;21.90;49.40;;;;;;10373965;28;20714;-75
2021/09/16 00:42:39;;;;;;;7.90;5.90;;;21.80;49.90;;;;;;10371652;28;20230;-75
2021/09/16 00:47:45;;;;;;;6.27;5.20;;;21.80;49.60;;;;;;10376320;28;20230;-75
2021/09/16 00:52:51;;;;;;;5.70;5.20;;;21.80;50.30;;;;;;10368095;28;20265;-75
2021/09/16 00:57:58;;;;;;;6.50;4.77;;;21.80;49.80;;;;;;10367729;28;20230;-75
2021/09/16 01:03:01;;;;;;;5.27;4.80;;;21.90;49.70;;;;;;10373947;28;20603;-75
2021/09/16 01:08:06;;;;;;;4.97;4.47;;;21.90;49.30;;;;;;10370707;28;20241;-74
2021/09/16 01:13:10;;;;;;;6.53;5.20;;;21.90;49.60;;;;;;10371029;28;20238;-75
2021/09/16 01:18:14;;;;;;;5.47;4.97;;;21.90;49.30;;;;;;10364561;28;20223;-75
2021/09/16 01:23:19;;;;;;;5.33;4.50;;;21.90;49.00;;;;;;10367288;28;20230;-75
2021/09/16 01:28:22;;;;;;;5.30;4.80;;;21.90;49.40;;;;;;10367930;28;20234;-75
2021/09/16 01:33:25;;;;;;;4.73;4.30;;;21.90;49.00;;;;;;10370682;28;20232;-74
2021/09/16 01:38:29;;;;;;;5.30;4.80;;;21.90;49.00;;;;;;10367833;28;20233;-74
2021/09/16 01:43:33;;;;;;;5.57;5.07;;;22.00;49.30;;;;;;10371659;28;20288;-74
2021/09/16 01:48:37;;;;;;;5.67;5.10;;;21.90;48.60;;;;;;10364601;28;20222;-74
2021/09/16 01:53:42;;;;;;;6.27;5.70;;;21.90;48.60;;;;;;10366926;28;20242;-74
2021/09/16 01:58:45;;;;;;;9.43;5.50;;;21.90;49.00;;;;;;10368263;28;20249;-74
2021/09/16 02:03:48;;;;;;;7.00;5.70;;;21.80;48.60;;;;;;10367216;28;20245;-75
2021/09/16 02:08:53;;;;;;;5.70;5.20;;;21.80;48.70;;;;;;10366872;28;20226;-75
2021/09/16 02:13:56;;;;;;;6.00;5.50;;;21.70;49.20;;;;;;10369049;28;20234;-75
2021/09/16 02:18:59;;;;;;;6.47;5.50;;;21.60;48.90;;;;;;10362222;28;20226;-74
2021/09/16 02:24:05;;;;;;;6.50;4.97;;;21.60;49.10;;;;;;10371500;28;20607;-75
2021/09/16 02:29:08;;;;;;;4.73;4.23;;;21.60;49.60;;;;;;10364373;28;20233;-75
2021/09/16 02:34:11;;;;;;;5.53;5.03;;;21.60;49.00;;;;;;10367488;28;20229;-75
2021/09/16 02:39:16;;;;;;;5.83;5.33;;;21.70;48.80;;;;;;10365665;28;20226;-75
2021/09/16 02:44:19;;;;;;;5.50;4.90;;;21.70;48.90;;;;;;10366315;28;20241;-75
2021/09/16 02:49:22;;;;;;;4.60;4.20;;;21.70;48.50;;;;;;10367639;28;20663;-75
2021/09/16 02:54:27;;;;;;;6.60;5.30;;;21.70;48.40;;;;;;10366044;28;20349;-74
2021/09/16 02:59:30;;;;;;;5.63;5.20;;;21.70;48.40;;;;;;10363910;28;20230;-74
2021/09/16 03:04:33;;;;;;;4.80;4.40;;;21.70;48.10;;;;;;10366896;28;20229;-74
2021/09/16 03:09:38;;;;;;;5.30;4.80;;;21.70;48.00;;;;;;10369382;28;20222;-75
2021/09/16 03:14:41;;;;;;;5.27;4.87;;;21.70;48.20;;;;;;10364792;28;20229;-74
2021/09/16 03:19:44;;;;;;;6.37;5.60;;;21.70;47.90;;;;;;10373409;28;20336;-74
2021/09/16 03:24:49;;;;;;;5.50;4.93;;;21.70;47.90;;;;;;10368228;28;20241;-74
2021/09/16 03:29:52;;;;;;;5.13;4.73;;;21.60;48.00;;;;;;10371406;28;21006;-74
2021/09/16 03:34:55;;;;;;;6.47;5.87;;;21.60;47.80;;;;;;10374456;28;20262;-74
2021/09/16 03:40:00;;;;;;;5.83;5.23;;;21.60;47.80;;;;;;10373629;28;20583;-74
2021/09/16 03:45:04;;;;;;;5.23;4.57;;;21.60;47.90;;;;;;10372725;28;20226;-75
2021/09/16 03:50:08;;;;;;;6.43;5.80;;;21.50;47.70;;;;;;10376001;28;20231;-75
2021/09/16 03:55:13;;;;;;;6.57;5.80;;;21.50;47.80;;;;;;10369635;28;20229;-74
2021/09/16 04:00:16;;;;;;;4.93;4.53;;;21.40;48.00;;;;;;10371571;28;20222;-75
2021/09/16 04:05:19;;;;;;;5.40;4.93;;;21.30;47.90;;;;;;10374662;28;20230;-75
2021/09/16 04:10:24;;;;;;;4.93;4.50;;;21.30;48.00;;;;;;10365717;28;20226;-74
2021/09/16 04:15:28;;;;;;;6.37;5.83;;;21.30;48.10;;;;;;10371453;28;20234;-75
2021/09/16 04:20:31;;;;;;;5.90;5.40;;;21.30;48.20;;;;;;10360945;28;20226;-74
2021/09/16 04:25:35;;;;;;;5.67;5.17;;;21.30;48.20;;;;;;10367776;28;20230;-77
2021/09/16 04:30:39;;;;;;;5.37;4.67;;;21.30;48.30;;;;;;10363955;28;20222;-77
2021/09/16 04:35:42;;;;;;;5.80;4.73;;;21.30;48.80;;;;;;10367277;28;20234;-77
2021/09/16 04:40:46;;;;;;;5.20;4.70;;;21.30;48.30;;;;;;10361313;28;20227;-79
2021/09/16 04:45:50;;;;;;;5.47;5.00;;;21.30;48.50;;;;;;10357693;28;20745;-80
2021/09/16 04:50:53;;;;;;;7.53;5.57;;;21.30;48.20;;;;;;10362439;28;20257;-79
2021/09/16 04:55:58;;;;;;;6.00;5.30;;;21.30;48.30;;;;;;10368674;28;20923;-81
2021/09/16 05:01:01;;;;;;;5.07;4.50;;;21.30;48.60;;;;;;10357429;28;20241;-81
2021/09/16 05:06:05;;;;;;;5.83;5.23;;;21.20;48.30;;;;;;10364791;28;20225;-79
2021/09/16 05:11:10;;;;;;;7.70;6.03;;;21.30;49.20;;;;;;10358432;28;20309;-78
2021/09/16 05:16:13;;;;;;;6.90;5.87;;;21.30;49.30;;;;;;10365944;28;20659;-78
2021/09/16 05:21:16;;;;;;;6.33;5.70;;;21.20;48.70;;;;;;10362306;28;20598;-80
2021/09/16 05:26:21;;;;;;;6.93;6.23;;;21.30;48.80;;;;;;10357545;28;20237;-77
2021/09/16 05:31:24;;;;;;;8.97;6.37;;;21.30;49.20;;;;;;10358985;28;20237;-77
2021/09/16 05:36:27;;;;;;;7.47;5.67;;;21.30;48.90;;;;;;10358769;28;20578;-77
2021/09/16 05:41:32;;;;;;;8.23;6.63;;;21.30;48.90;;;;;;10359931;28;20231;-77
2021/09/16 05:46:35;;;;;;;7.03;6.10;;;21.20;49.30;;;;;;10355583;28;20723;-77
2021/09/16 05:51:38;;;;;;;6.97;6.10;;;21.20;49.00;;;;;;10358453;28;20607;-77
2021/09/16 05:56:43;;;;;;;6.80;6.20;;;21.20;49.30;;;;;;10361789;28;20226;-78
2021/09/16 06:01:46;;;;;;;8.37;6.80;;;21.20;49.80;;;;;;10362896;28;20226;-78
2021/09/16 06:06:49;;;;;;;8.37;7.33;;;21.10;49.70;;;;;;10353091;28;20230;-77
2021/09/16 06:11:54;;;;;;;7.47;6.77;;;21.10;49.70;;;;;;10355671;28;20246;-77
2021/09/16 06:16:57;;;;;;;7.93;7.30;;;21.10;49.70;;;;;;10347464;28;20222;-77
2021/09/16 06:22:01;;;;;;;8.03;7.33;;;21.10;49.70;;;;;;10354786;28;20245;-77
2021/09/16 06:27:05;;;;;;;8.50;7.70;;;21.10;49.80;;;;;;10351426;28;20226;-77
2021/09/16 06:32:09;;;;;;;8.80;8.00;;;21.10;50.80;;;;;;10347191;28;20230;-77
2021/09/16 06:37:12;;;;;;;8.73;7.97;;;21.20;50.50;;;;;;10341043;28;20237;-78
2021/09/16 06:42:17;;;;;;;8.47;7.67;;;21.10;50.40;;;;;;10349340;28;20630;-77
2021/09/16 06:47:20;;;;;;;8.40;7.60;;;21.20;51.40;;;;;;10353906;28;21037;-77
2021/09/16 06:52:23;;;;;;;9.03;6.73;;;21.20;50.90;;;;;;10355820;28;21092;-78
2021/09/16 06:57:28;;;;;;;8.07;6.90;;;21.30;50.90;;;;;;10359181;28;20226;-77
2021/09/16 07:02:32;;;;;;;7.07;6.40;;;21.40;51.90;;;;;;10359410;28;20230;-75
2021/09/16 07:07:35;;;;;;;6.90;6.13;;;21.50;51.40;;;;;;10374603;28;20321;-75
2021/09/16 07:12:41;;;;;;;9.67;7.30;;;21.60;51.30;;;;;;10370418;28;20280;-74
2021/09/16 07:17:44;;;;;;;8.93;6.97;;;21.60;51.70;;;;;;10370483;28;20230;-75
2021/09/16 07:22:47;;;;;;;7.63;6.90;;;21.60;51.30;;;;;;10366304;28;20221;-74
2021/09/16 07:27:52;;;;;;;7.97;7.27;;;21.70;51.50;;;;;;10371409;28;20606;-75
2021/09/16 07:32:55;;;;;;;7.90;7.10;;;21.70;52.00;;;;;;10366563;28;20226;-74
2021/09/16 07:37:58;;;;;;;7.57;6.57;;;21.80;51.30;;;;;;10366031;28;20724;-74
2021/09/16 07:43:04;;;;;;;7.13;6.47;;;21.80;51.30;;;;;;10366960;28;20226;-74
2021/09/16 07:48:08;;;;;;;7.40;6.70;;;21.80;52.00;;;;;;10366667;28;20225;-75
2021/09/16 07:53:11;;;;;;;7.70;6.90;;;21.90;51.70;;;;;;10371811;28;20226;-75
2021/09/16 07:58:16;;;;;;;8.40;6.50;;;21.90;51.80;;;;;;10370543;28;20736;-76
2021/09/16 08:03:19;;;;;;;7.40;6.80;;;22.00;52.50;;;;;;10369161;28;20245;-75
2021/09/16 08:08:23;;;;;;;8.73;8.00;;;22.10;52.30;;;;;;10364326;28;20237;-76
2021/09/16 08:13:28;;;;;;;8.30;7.63;;;22.20;52.50;;;;;;10366459;28;20760;-76
2021/09/16 08:18:31;;;;;;;8.00;7.23;;;22.30;52.90;;;;;;10361072;28;20225;-75
2021/09/16 08:23:34;;;;;;;7.57;6.77;;;22.40;53.00;;;;;;10361558;28;20630;-75
2021/09/16 08:28:39;;;;;;;7.13;6.43;;;22.60;53.00;;;;;;10364172;28;20223;-75
2021/09/16 08:33:42;;;;;;;7.70;6.90;;;22.80;52.30;;;;;;10359157;28;20234;-74
2021/09/16 08:38:46;;;;;;;7.00;5.90;;;22.90;52.00;;;;;;10361241;28;20257;-75
2021/09/16 08:43:51;;;;;;;6.37;5.83;;;23.00;51.70;;;;;;10364169;28;20235;-75
2021/09/16 08:48:55;;;;;;;5.90;5.33;;;23.10;51.50;;;;;;10360893;28;21144;-75
2021/09/16 08:53:59;;;;;;;5.07;4.60;;;23.20;51.60;;;;;;10362681;28;20222;-75
2021/09/16 08:59:06;;;;;;;5.43;4.93;;;23.40;51.80;;;;;;10359365;28;20851;-76
2021/09/16 09:04:09;;;;;;;4.63;4.30;;;23.50;51.50;;;;;;10360057;28;20234;-72
2021/09/16 09:09:15;;;;;;;4.03;3.67;;;23.70;51.20;;;;;;10357249;28;20222;-72
2021/09/16 09:14:21;;;;;;;4.80;4.30;;;23.80;51.20;;;;;;10362211;28;20230;-72
2021/09/16 09:19:26;;;;;;;5.93;5.43;;;23.80;50.70;;;;;;10365145;28;20226;-71
2021/09/16 09:24:33;;;;;;;5.87;5.37;;;23.90;50.70;;;;;;10357885;28;20233;-71
2021/09/16 09:29:37;;;;;;;4.87;4.47;;;24.00;50.50;;;;;;10362174;28;20631;-71
2021/09/16 09:34:48;;;;;;;5.40;4.83;;;24.10;50.60;;;;;;10356569;28;20817;-77
2021/09/16 09:40:00;;;;;;;4.73;4.23;;;24.20;49.80;;;;;;10358567;28;20226;-76
2021/09/16 09:45:08;;;;;;;4.93;4.20;;;24.30;49.60;;;;;;10363572;28;20232;-76
2021/09/16 09:50:18;;;;;;;5.30;4.80;;;24.30;48.90;;;;;;10366557;28;20244;-77
2021/09/16 09:55:25;;;;;;;7.20;4.80;;;24.50;48.20;;;;;;10367590;28;20234;-76
2021/09/16 10:00:30;;;;;;;5.43;4.97;;;24.50;49.10;;;;;;10359770;28;20756;-74
2021/09/16 10:05:34;;;;;;;5.43;5.03;;;24.60;47.90;;;;;;10356058;28;20237;-78
2021/09/16 10:10:39;;;;;;;5.60;4.50;;;24.80;49.20;;;;;;10357715;28;20636;-77
2021/09/16 10:15:45;;;;;;;5.17;4.67;;;24.90;48.40;;;;;;10357177;28;20241;-77
2021/09/16 10:20:49;;;;;;;4.73;4.33;;;24.90;46.50;;;;;;10332438;28;20218;-76
2021/09/16 10:25:52;;;;;;;4.80;4.30;;;25.00;47.50;;;;;;10341207;28;20241;-71
2021/09/16 10:30:57;;;;;;;5.20;4.70;;;25.00;47.20;;;;;;10329298;28;20243;-71
2021/09/16 10:36:10;;;;;;;4.53;4.23;;;25.10;46.90;;;;;;10343241;28;20221;-71
2021/09/16 10:41:18;;;;;;;4.80;4.30;;;25.20;46.20;;;;;;10333150;28;20332;-71
2021/09/16 10:46:29;;;;;;;3.93;3.63;;;25.40;46.60;;;;;;10341204;28;20234;-71
2021/09/16 10:51:39;;;;;;;4.60;4.23;;;25.60;46.60;;;;;;10343624;28;20218;-70
2021/09/16 10:56:42;;;;;;;3.80;3.50;;;25.70;45.30;;;;;;10346641;28;20257;-71
2021/09/16 11:01:59;;;;;;;3.33;3.03;;;25.90;46.40;;;;;;10366132;28;20774;-76
2021/09/16 11:07:03;;;;;;;3.10;2.90;;;26.00;44.40;;;;;;10358586;28;20230;-76
2021/09/16 11:12:07;;;;;;;3.30;3.00;;;26.10;44.90;;;;;;10360053;28;20234;-76
2021/09/16 11:17:12;;;;;;;2.93;2.73;;;26.10;44.50;;;;;;10354025;28;20252;-76
2021/09/16 11:22:21;;;;;;;3.00;2.70;;;26.00;43.50;;;;;;10362722;28;20225;-76
2021/09/16 11:27:27;;;;;;;3.20;2.90;;;26.00;44.10;;;;;;10358779;28;20231;-75
2021/09/16 11:32:33;;;;;;;3.50;3.20;;;26.00;43.30;;;;;;10353217;28;20241;-74
2021/09/16 11:37:39;;;;;;;3.60;3.30;;;26.00;43.10;;;;;;10362397;28;20234;-71
2021/09/16 11:42:45;;;;;;;3.70;3.40;;;26.00;43.50;;;;;;10358030;28;20895;-76
2021/09/16 11:47:52;;;;;;;3.80;3.50;;;26.00;43.60;;;;;;10356973;28;20322;-76
2021/09/16 11:52:58;;;;;;;4.00;3.67;;;26.00;43.70;;;;;;10358386;28;20233;-71
2021/09/16 11:58:05;;;;;;;3.80;3.43;;;25.90;43.30;;;;;;10363338;28;20238;-71
2021/09/16 12:03:11;;;;;;;3.93;3.63;;;25.80;43.10;;;;;;10364716;28;20905;-71
2021/09/16 12:08:20;;;;;;;4.13;3.33;;;25.70;43.60;;;;;;10363084;28;20713;-72
2021/09/16 12:13:26;;;;;;;3.93;3.63;;;25.70;43.50;;;;;;10364592;28;20316;-72
2021/09/16 12:18:34;;;;;;;3.43;3.00;;;25.70;43.90;;;;;;10360454;28;21062;-72
2021/09/16 12:23:39;;;;;;;3.07;2.70;;;25.70;43.20;;;;;;10367916;28;20236;-73
2021/09/16 12:28:57;;;;;;;4.57;3.10;;;25.80;44.40;;;;;;10363331;28;20229;-75
2021/09/16 12:34:05;;;;;;;2.83;2.60;;;25.90;42.50;;;;;;10360335;28;20221;-79
2021/09/16 12:39:13;;;;;;;2.93;2.73;;;26.00;43.60;;;;;;10359045;28;20232;-73
2021/09/16 12:44:18;;;;;;;3.20;2.90;;;26.10;43.10;;;;;;10361485;28;20264;-73
2021/09/16 12:49:29;;;;;;;3.57;3.10;;;26.10;42.60;;;;;;10361163;28;20230;-73
2021/09/16 12:54:34;;;;;;;2.80;2.60;;;26.10;42.50;;;;;;10358601;28;20915;-74
2021/09/16 12:59:37;;;;;;;3.10;2.90;;;26.10;42.60;;;;;;10360999;28;20566;-71
2021/09/16 13:05:01;;;;;;;3.63;3.27;;;26.00;43.00;;;;;;10363473;28;20241;-73
2021/09/16 13:10:10;;;;;;;4.00;2.50;;;26.00;42.20;;;;;;10367556;28;20269;-74
2021/09/16 13:15:16;;;;;;;2.73;2.50;;;25.90;42.30;;;;;;10358816;28;20241;-74
2021/09/16 13:20:24;;;;;;;5.73;2.93;;;25.90;42.20;;;;;;10360393;28;20316;-72
2021/09/16 13:25:28;;;;;;;4.33;2.63;;;25.70;42.30;;;;;;10355178;28;20881;-73
2021/09/16 13:30:32;;;;;;;4.57;2.50;;;25.40;43.00;;;;;;10353404;28;20221;-72
2021/09/16 13:35:37;;;;;;;2.20;2.00;;;25.20;42.90;;;;;;10354200;28;20312;-73
2021/09/16 13:40:42;;;;;;;4.63;2.17;;;24.90;43.20;;;;;;10349641;28;20229;-73
2021/09/16 13:45:45;;;;;;;2.67;1.97;;;24.70;43.40;;;;;;10355367;28;20261;-72
2021/09/16 13:50:49;;;;;;;4.33;2.10;;;24.50;44.10;;;;;;10359979;28;20569;-75
2021/09/16 13:55:53;;;;;;;5.83;2.20;;;24.30;45.90;;;;;;10351742;28;20238;-75
2021/09/16 14:00:56;;;;;;;2.33;2.03;;;24.30;45.80;;;;;;10350762;28;20230;-76
2021/09/16 14:06:01;;;;;;;2.90;2.03;;;24.30;46.00;;;;;;10352528;28;20227;-77
2021/09/16 14:11:04;;;;;;;2.30;2.10;;;24.20;46.90;;;;;;10356576;28;20218;-77
2021/09/16 14:16:07;;;;;;;2.30;2.10;;;24.20;45.90;;;;;;10362086;28;20236;-77
2021/09/16 14:21:12;;;;;;;2.00;1.90;;;24.10;46.20;;;;;;10355960;28;20230;-78
2021/09/16 14:26:15;;;;;;;2.63;2.23;;;24.10;47.30;;;;;;10359553;28;20233;-77
2021/09/16 14:31:18;;;;;;;2.77;2.50;;;24.10;46.70;;;;;;10355002;28;20707;-75
2021/09/16 14:36:23;;;;;;;2.67;2.47;;;24.10;46.00;;;;;;10352573;28;20373;-76
2021/09/16 14:41:26;;;;;;;3.20;2.87;;;24.10;46.30;;;;;;10346448;28;20492;-78
2021/09/16 14:46:29;;;;;;;3.47;3.17;;;23.90;45.60;;;;;;10357083;28;20241;-77
2021/09/16 14:51:34;;;;;;;3.40;3.10;;;23.70;45.80;;;;;;10368635;22;20561;-76
2021/09/16 14:56:37;;;;;;;3.90;3.60;;;23.60;46.60;;;;;;10427079;28;20225;-77
2021/09/16 15:01:41;;;;;;;3.90;3.33;;;23.40;46.20;;;;;;10424916;28;20811;-76
2021/09/16 15:06:46;;;;;;;3.40;3.20;;;23.30;46.40;;;;;;10427722;28;20248;-75
2021/09/16 15:11:49;;;;;;;3.70;3.50;;;23.20;46.40;;;;;;10420683;28;20577;-75
2021/09/16 15:16:53;;;;;;;3.30;3.10;;;23.20;46.70;;;;;;10424608;28;20313;-76
2021/09/16 15:21:57;;;;;;;2.90;2.70;;;23.10;46.80;;;;;;10420153;28;20834;-76
2021/09/16 15:27:01;;;;;;;3.40;3.10;;;23.10;46.80;;;;;;10426136;28;20221;-75
2021/09/16 15:32:05;;;;;;;2.90;2.70;;;23.10;46.50;;;;;;10428892;28;20217;-74
2021/09/16 15:37:10;;;;;;;2.77;2.57;;;23.10;46.40;;;;;;10432291;28;20232;-76
2021/09/16 15:42:13;;;;;;;3.23;2.93;;;23.10;46.70;;;;;;10426968;28;20715;-75
2021/09/16 15:47:17;;;;;;;3.30;3.10;;;23.10;46.10;;;;;;10429121;28;20225;-75
2021/09/16 15:52:21;;;;;;;3.13;2.93;;;23.00;46.10;;;;;;10429202;28;20234;-75
2021/09/16 15:57:24;;;;;;;3.40;3.20;;;23.00;46.00;;;;;;10429485;28;20230;-75
2021/09/16 16:02:28;;;;;;;4.17;3.87;;;23.10;46.50;;;;;;10424690;28;20597;-76
2021/09/16 16:07:33;;;;;;;4.50;4.20;;;23.00;45.30;;;;;;10427970;28;20324;-75
2021/09/16 16:12:38;;;;;;;4.33;4.03;;;22.90;45.20;;;;;;10426777;28;20232;-75
2021/09/16 16:17:41;;;;;;;4.37;4.07;;;22.70;45.30;;;;;;10429939;28;20229;-76
2021/09/16 16:22:46;;;;;;;4.80;4.50;;;22.60;45.50;;;;;;10422675;28;20603;-76
2021/09/16 16:27:49;;;;;;;5.13;4.73;;;22.50;45.50;;;;;;10428968;28;20625;-75
2021/09/16 16:32:53;;;;;;;5.27;4.87;;;22.40;45.40;;;;;;10419579;28;21701;-75
2021/09/16 16:37:58;;;;;;;5.87;5.47;;;22.30;45.40;;;;;;10429002;28;20229;-76
2021/09/16 16:43:01;;;;;;;5.90;5.50;;;22.20;45.70;;;;;;10427039;28;20265;-76
2021/09/16 16:48:04;;;;;;;6.00;5.50;;;22.10;45.60;;;;;;10427946;28;20229;-75
2021/09/16 16:53:09;;;;;;;5.97;5.57;;;22.10;45.60;;;;;;10428929;28;20228;-76
2021/09/16 16:58:12;;;;;;;6.43;5.93;;;22.00;45.80;;;;;;10432167;28;20231;-76
2021/09/16 17:03:15;;;;;;;6.77;6.27;;;21.90;45.60;;;;;;10423926;28;20232;-74
2021/09/16 17:08:21;;;;;;;5.40;4.90;;;21.90;45.80;;;;;;10426019;28;20233;-75
2021/09/16 17:13:24;;;;;;;6.60;6.03;;;21.90;46.80;;;;;;10426116;28;20235;-76
2021/09/16 17:18:27;;;;;;;6.83;6.23;;;21.90;45.90;;;;;;10414011;28;20224;-75
2021/09/16 17:23:32;;;;;;;7.43;6.77;;;21.90;45.70;;;;;;10423027;28;20227;-76
2021/09/16 17:28:35;;;;;;;6.93;6.43;;;21.90;46.20;;;;;;10425417;28;20227;-75
2021/09/16 17:33:39;;;;;;;6.90;6.40;;;21.90;45.40;;;;;;10419289;28;20231;-75
2021/09/16 17:38:43;;;;;;;6.80;6.20;;;21.90;45.40;;;;;;10419205;28;20229;-75
2021/09/16 17:43:54;;;;;;;7.20;6.60;;;21.90;45.40;;;;;;10422487;28;20225;-76
2021/09/16 17:48:57;;;;;;;7.13;6.53;;;21.90;45.40;;;;;;10418373;28;20268;-76
2021/09/16 17:54:01;;;;;;;6.80;6.20;;;21.90;45.10;;;;;;10424428;28;20224;-76
2021/09/16 17:59:05;;;;;;;6.10;5.60;;;21.90;44.60;;;;;;10425896;28;20248;-76
2021/09/16 18:04:08;;;;;;;6.77;6.27;;;21.80;44.60;;;;;;10426254;28;20221;-76
2021/09/16 18:09:13;;;;;;;6.83;6.23;;;21.70;44.60;;;;;;10426119;28;20614;-76
2021/09/16 18:14:16;;;;;;;6.60;6.00;;;21.70;44.70;;;;;;10424967;28;20225;-76
2021/09/16 18:19:19;;;;;;;7.47;6.87;;;21.60;44.30;;;;;;10419424;28;20969;-76
2021/09/16 18:24:24;;;;;;;6.87;6.17;;;21.50;44.30;;;;;;10418578;28;20225;-76
2021/09/16 18:29:27;;;;;;;7.33;6.10;;;21.40;44.30;;;;;;10417542;28;20696;-76
2021/09/16 18:34:30;;;;;;;7.33;6.70;;;21.30;44.30;;;;;;10424625;28;20319;-76
2021/09/16 18:39:35;;;;;;;7.47;6.77;;;21.20;44.80;;;;;;10417850;28;20892;-76
2021/09/16 18:44:38;;;;;;;7.20;6.50;;;21.20;44.40;;;;;;10421946;28;21104;-76
2021/09/16 18:49:41;;;;;;;7.07;6.50;;;21.10;44.20;;;;;;10422410;28;20239;-76
2021/09/16 18:54:46;;;;;;;6.93;6.30;;;21.00;44.40;;;;;;10420443;28;20224;-76
2021/09/16 18:59:49;;;;;;;6.97;6.37;;;20.90;44.30;;;;;;10417047;28;20255;-76
2021/09/16 19:04:52;;;;;;;6.67;6.17;;;20.80;44.60;;;;;;10420584;28;20296;-76
2021/09/16 19:09:57;;;;;;;7.27;6.67;;;20.80;44.70;;;;;;10427330;28;20224;-76
2021/09/16 19:15:01;;;;;;;7.90;7.20;;;20.80;45.60;;;;;;10419795;28;20221;-75
2021/09/16 19:20:06;;;;;;;6.90;6.40;;;20.80;44.80;;;;;;10428814;28;20623;-75
2021/09/16 19:25:12;;;;;;;7.67;7.00;;;20.80;44.80;;;;;;10423808;28;20237;-75
2021/09/16 19:30:15;;;;;;;7.93;7.23;;;20.80;44.80;;;;;;10423955;28;20229;-75
2021/09/16 19:35:19;;;;;;;7.87;7.27;;;20.80;44.60;;;;;;10422755;28;20229;-75
2021/09/16 19:40:23;;;;;;;7.67;7.10;;;20.80;44.50;;;;;;10416735;28;20240;-75
2021/09/16 19:45:28;;;;;;;7.97;7.30;;;20.70;44.60;;;;;;10427289;28;20235;-75
2021/09/16 19:50:31;;;;;;;8.27;7.57;;;20.70;44.70;;;;;;10425900;28;20243;-75
2021/09/16 19:55:37;;;;;;;8.03;7.33;;;20.70;44.60;;;;;;10426700;28;20249;-75
2021/09/16 20:00:40;;;;;;;9.13;8.40;;;20.70;44.40;;;;;;10424192;28;20232;-75
2021/09/16 20:05:43;;;;;;;8.83;8.13;;;20.60;44.20;;;;;;10420250;28;20232;-76
2021/09/16 20:10:50;;;;;;;9.67;8.87;;;20.50;44.40;;;;;;10438130;28;20228;-77
2021/09/16 20:15:53;;;;;;;9.13;8.33;;;20.40;44.20;;;;;;10456394;28;20239;-77
2021/09/16 20:20:57;;;;;;;11.13;9.10;;;20.30;44.40;;;;;;10441538;28;20232;-77
2021/09/16 20:26:02;;;;;;;10.20;9.30;;;20.30;44.40;;;;;;10445306;28;20232;-77
2021/09/16 20:31:05;;;;;;;9.87;8.97;;;20.20;44.30;;;;;;10438919;28;20229;-77
2021/09/16 20:36:08;;;;;;;9.03;8.13;;;20.00;44.20;;;;;;10437438;28;20253;-77
2021/09/16 20:41:13;;;;;;;8.97;8.17;;;19.90;44.20;;;;;;10439172;28;20256;-77
2021/09/16 20:46:16;;;;;;;9.27;7.73;;;19.80;44.20;;;;;;10434354;28;20720;-79
2021/09/16 20:51:20;;;;;;;8.70;8.00;;;19.60;44.40;;;;;;10440642;28;20233;-77
2021/09/16 20:56:25;;;;;;;8.77;7.90;;;19.40;44.30;;;;;;10464798;28;20314;-77
2021/09/16 21:01:29;;;;;;;7.60;6.87;;;19.30;44.50;;;;;;10443282;28;20704;-77
2021/09/16 21:06:33;;;;;;;7.97;7.37;;;19.20;44.50;;;;;;10439279;28;21037;-78
2021/09/16 21:11:38;;;;;;;7.37;6.70;;;19.20;44.50;;;;;;10449308;28;20225;-78
2021/09/16 21:16:41;;;;;;;7.57;6.87;;;19.10;44.50;;;;;;10448734;28;20239;-78
2021/09/16 21:21:44;;;;;;;6.60;5.83;;;19.00;44.50;;;;;;10447304;28;20233;-78
2021/09/16 21:26:52;;;;;;;6.70;6.10;;;19.00;44.60;;;;;;10452372;28;20225;-78
2021/09/16 21:31:55;;;;;;;7.13;6.53;;;19.00;44.60;;;;;;10439257;28;20264;-77
2021/09/16 21:36:58;;;;;;;6.90;6.30;;;19.00;44.20;;;;;;10423572;28;20286;-77
2021/09/16 21:42:04;;;;;;;6.83;6.13;;;18.90;44.20;;;;;;10430793;28;20311;-79
2021/09/16 21:47:07;;;;;;;6.17;5.73;;;18.90;44.40;;;;;;10421898;28;20311;-78
2021/09/16 21:52:10;;;;;;;7.10;6.00;;;18.90;44.50;;;;;;10424183;28;20229;-79
2021/09/16 21:57:15;;;;;;;6.20;5.67;;;18.80;44.60;;;;;;10425036;28;20225;-78
2021/09/16 22:02:21;;;;;;;5.27;4.87;;;18.80;44.40;;;;;;10428743;28;20247;-79
2021/09/16 22:07:27;;;;;;;5.43;5.03;;;18.80;44.50;;;;;;10425363;28;20305;-79
2021/09/16 22:12:34;;;;;;;5.97;5.47;;;18.80;44.70;;;;;;10423183;28;20700;-78
2021/09/16 22:17:38;;;;;;;5.60;5.10;;;18.80;44.60;;;;;;10429789;28;20323;-78
2021/09/16 22:22:42;;;;;;;5.40;5.00;;;18.80;44.70;;;;;;10441745;28;20243;-79
2021/09/16 22:27:47;;;;;;;6.30;5.57;;;18.80;44.70;;;;;;10428540;28;20319;-78
2021/09/16 22:32:50;;;;;;;4.90;4.43;;;18.80;44.70;;;;;;10427232;28;20602;-78
2021/09/16 22:37:54;;;;;;;5.40;5.00;;;18.80;44.70;;;;;;10425923;28;20225;-78
2021/09/16 22:42:59;;;;;;;5.13;4.73;;;18.80;44.50;;;;;;10429817;28;20630;-78
2021/09/16 22:48:02;;;;;;;4.70;4.30;;;18.80;44.40;;;;;;10431495;28;20220;-78
2021/09/16 22:53:06;;;;;;;5.03;4.53;;;18.90;45.30;;;;;;10420127;28;20282;-78
2021/09/16 22:58:10;;;;;;;5.10;4.57;;;18.90;44.50;;;;;;10426076;28;20236;-78
2021/09/16 23:03:14;;;;;;;5.47;5.03;;;18.80;44.10;;;;;;10420754;28;20244;-78
2021/09/16 23:08:17;;;;;;;7.57;5.07;;;18.80;44.00;;;;;;10423978;28;20233;-78
2021/09/16 23:13:22;;;;;;;6.10;5.50;;;18.70;43.80;;;;;;10429509;28;20217;-79
2021/09/16 23:18:25;;;;;;;5.83;5.33;;;18.70;43.90;;;;;;10424026;28;20251;-78
2021/09/16 23:23:28;;;;;;;5.37;4.97;;;18.60;43.70;;;;;;10426365;28;20225;-78
2021/09/16 23:28:33;;;;;;;5.63;5.17;;;18.50;43.70;;;;;;10424543;28;20588;-79
2021/09/16 23:33:37;;;;;;;5.23;4.83;;;18.40;43.70;;;;;;10425684;28;20240;-78
2021/09/16 23:38:41;;;;;;;5.17;4.77;;;18.30;43.90;;;;;;10427554;28;20229;-78
2021/09/16 23:43:45;;;;;;;6.40;5.13;;;18.20;44.20;;;;;;10432298;28;20237;-78
2021/09/16 23:48:48;;;;;;;5.70;5.30;;;18.20;44.60;;;;;;10433793;28;20728;-78
2021/09/16 23:53:51;;;;;;;6.07;5.47;;;18.20;44.70;;;;;;10437370;28;20225;-78
2021/09/16 23:58:56;;;;;;;6.57;5.93;;;18.20;44.60;;;;;;10440300;28;20225;-78
